AAL2299 KDFW-KLAX
Flight info
| Callsign | AAL2299 |
|---|---|
| Flight time | 2h 58m |
| Altitude | 40000 |
| Route | WSTEX2 CIKAN INK J50 SSO J4 WLVRN ESTWD HLYWD1 |
| Aircraft | B772/H-SDE2E3FGHIJ5LORVWXY/LB1D1 |
Departure
| Time | 2026-05-07 23:53 |
|---|---|
| Airport | Dallas Fort Worth International Airport (KDFW) |
Arrival
| Time | 2026-05-08 02:52 |
|---|---|
| Airport | Los Angeles International Airport (KLAX) |
| Time | Latitude | Longitude | Altitude | Speed | Heading |
|---|---|---|---|---|---|
| 2026-05-07 22:45 | 32.90006 | -97.04362 | 603 ft | 0 kts | 175° |
| 2026-05-07 23:29 | 32.90023 | -97.04364 | 603 ft | 4 kts | 175° |
| 2026-05-07 23:29 | 32.90047 | -97.04366 | 603 ft | 1 kts | 175° |
| 2026-05-07 23:29 | 32.90070 | -97.04364 | 603 ft | 4 kts | 210° |
| 2026-05-07 23:30 | 32.90087 | -97.04343 | 602 ft | 4 kts | 237° |
| 2026-05-07 23:30 | 32.90092 | -97.04332 | 602 ft | 4 kts | 219° |
| 2026-05-07 23:30 | 32.90080 | -97.04356 | 603 ft | 4 kts | 260° |
| 2026-05-07 23:30 | 32.90080 | -97.04376 | 603 ft | 0 kts | 270° |
| 2026-05-07 23:35 | 32.90080 | -97.04383 | 603 ft | 3 kts | 270° |
| 2026-05-07 23:36 | 32.90080 | -97.04421 | 603 ft | 5 kts | 270° |
| 2026-05-07 23:36 | 32.90080 | -97.04462 | 603 ft | 5 kts | 270° |
| 2026-05-07 23:36 | 32.90080 | -97.04502 | 603 ft | 5 kts | 270° |
| 2026-05-07 23:36 | 32.90080 | -97.04544 | 603 ft | 5 kts | 270° |
| 2026-05-07 23:37 | 32.90080 | -97.04586 | 603 ft | 5 kts | 270° |
| 2026-05-07 23:37 | 32.90080 | -97.04630 | 602 ft | 5 kts | 270° |
| 2026-05-07 23:37 | 32.90080 | -97.04674 | 602 ft | 5 kts | 270° |
| 2026-05-07 23:37 | 32.90080 | -97.04722 | 602 ft | 6 kts | 270° |
| 2026-05-07 23:38 | 32.90059 | -97.04760 | 603 ft | 6 kts | 205° |
| 2026-05-07 23:38 | 32.90018 | -97.04764 | 603 ft | 6 kts | 179° |
| 2026-05-07 23:38 | 32.89972 | -97.04764 | 603 ft | 8 kts | 179° |
| 2026-05-07 23:38 | 32.89904 | -97.04763 | 602 ft | 11 kts | 180° |
| 2026-05-07 23:39 | 32.89830 | -97.04763 | 601 ft | 11 kts | 180° |
| 2026-05-07 23:39 | 32.89757 | -97.04763 | 601 ft | 11 kts | 180° |
| 2026-05-07 23:39 | 32.89683 | -97.04764 | 602 ft | 11 kts | 180° |
| 2026-05-07 23:39 | 32.89609 | -97.04765 | 602 ft | 11 kts | 180° |
| 2026-05-07 23:40 | 32.89536 | -97.04766 | 601 ft | 11 kts | 180° |
| 2026-05-07 23:40 | 32.89462 | -97.04766 | 600 ft | 11 kts | 180° |
| 2026-05-07 23:40 | 32.89388 | -97.04766 | 599 ft | 11 kts | 180° |
| 2026-05-07 23:40 | 32.89309 | -97.04766 | 599 ft | 11 kts | 180° |
| 2026-05-07 23:41 | 32.89229 | -97.04766 | 599 ft | 11 kts | 180° |
| 2026-05-07 23:41 | 32.89149 | -97.04767 | 598 ft | 12 kts | 180° |
| 2026-05-07 23:41 | 32.89041 | -97.04767 | 595 ft | 19 kts | 180° |
| 2026-05-07 23:41 | 32.88906 | -97.04768 | 595 ft | 19 kts | 180° |
| 2026-05-07 23:42 | 32.88771 | -97.04769 | 595 ft | 19 kts | 180° |
| 2026-05-07 23:42 | 32.88664 | -97.04769 | 593 ft | 19 kts | 180° |
| 2026-05-07 23:42 | 32.88548 | -97.04770 | 592 ft | 7 kts | 181° |
| 2026-05-07 23:42 | 32.88533 | -97.04770 | 592 ft | 2 kts | 181° |
| 2026-05-07 23:43 | 32.88520 | -97.04772 | 592 ft | 2 kts | 195° |
| 2026-05-07 23:43 | 32.88509 | -97.04783 | 592 ft | 2 kts | 226° |
| 2026-05-07 23:43 | 32.88503 | -97.04810 | 593 ft | 5 kts | 265° |
| 2026-05-07 23:43 | 32.88506 | -97.04854 | 593 ft | 6 kts | 281° |
| 2026-05-07 23:44 | 32.88545 | -97.04891 | 594 ft | 10 kts | 350° |
| 2026-05-07 23:44 | 32.88625 | -97.04892 | 593 ft | 12 kts | 0° |
| 2026-05-07 23:44 | 32.88710 | -97.04892 | 592 ft | 12 kts | 0° |
| 2026-05-07 23:44 | 32.88794 | -97.04891 | 592 ft | 12 kts | 0° |
| 2026-05-07 23:45 | 32.88879 | -97.04891 | 593 ft | 12 kts | 0° |
| 2026-05-07 23:45 | 32.88963 | -97.04891 | 594 ft | 12 kts | 0° |
| 2026-05-07 23:45 | 32.89047 | -97.04890 | 595 ft | 12 kts | 0° |
| 2026-05-07 23:45 | 32.89132 | -97.04890 | 595 ft | 12 kts | 0° |
| 2026-05-07 23:46 | 32.89216 | -97.04889 | 597 ft | 12 kts | 0° |
| 2026-05-07 23:46 | 32.89300 | -97.04889 | 599 ft | 12 kts | 0° |
| 2026-05-07 23:46 | 32.89385 | -97.04889 | 602 ft | 12 kts | 0° |
| 2026-05-07 23:46 | 32.89469 | -97.04889 | 603 ft | 12 kts | 0° |
| 2026-05-07 23:47 | 32.89561 | -97.04888 | 603 ft | 15 kts | 0° |
| 2026-05-07 23:47 | 32.89670 | -97.04888 | 621 ft | 17 kts | 0° |
| 2026-05-07 23:47 | 32.89804 | -97.04887 | 624 ft | 20 kts | 0° |
| 2026-05-07 23:47 | 32.89945 | -97.04886 | 612 ft | 20 kts | 0° |
| 2026-05-07 23:48 | 32.90085 | -97.04885 | 603 ft | 20 kts | 0° |
| 2026-05-07 23:48 | 32.90227 | -97.04885 | 612 ft | 21 kts | 0° |
| 2026-05-07 23:48 | 32.90380 | -97.04883 | 603 ft | 22 kts | 0° |
| 2026-05-07 23:48 | 32.90534 | -97.04883 | 613 ft | 22 kts | 0° |
| 2026-05-07 23:49 | 32.90686 | -97.04882 | 614 ft | 22 kts | 0° |
| 2026-05-07 23:49 | 32.90840 | -97.04881 | 617 ft | 22 kts | 0° |
| 2026-05-07 23:49 | 32.90996 | -97.04880 | 621 ft | 22 kts | 0° |
| 2026-05-07 23:49 | 32.91147 | -97.04880 | 622 ft | 22 kts | 0° |
| 2026-05-07 23:50 | 32.91299 | -97.04879 | 621 ft | 19 kts | 1° |
| 2026-05-07 23:50 | 32.91429 | -97.04878 | 624 ft | 18 kts | 0° |
| 2026-05-07 23:50 | 32.91535 | -97.04879 | 623 ft | 9 kts | 354° |
| 2026-05-07 23:50 | 32.91566 | -97.04925 | 627 ft | 6 kts | 275° |
| 2026-05-07 23:51 | 32.91566 | -97.04981 | 618 ft | 9 kts | 270° |
| 2026-05-07 23:51 | 32.91565 | -97.05048 | 616 ft | 5 kts | 262° |
| 2026-05-07 23:51 | 32.91548 | -97.05070 | 630 ft | 6 kts | 207° |
| 2026-05-07 23:51 | 32.91509 | -97.05074 | 624 ft | 6 kts | 180° |
| 2026-05-07 23:52 | 32.91498 | -97.05074 | 631 ft | 0 kts | 180° |
| 2026-05-07 23:53 | 32.91458 | -97.05074 | 624 ft | 24 kts | 180° |
| 2026-05-07 23:53 | 32.91014 | -97.05076 | 622 ft | 104 kts | 180° |
| 2026-05-07 23:53 | 32.90049 | -97.05083 | 697 ft | 162 kts | 180° |
| 2026-05-07 23:53 | 32.88943 | -97.05099 | 1647 ft | 157 kts | 179° |
| 2026-05-07 23:54 | 32.87807 | -97.05090 | 2384 ft | 169 kts | 178° |
| 2026-05-07 23:54 | 32.86586 | -97.05052 | 2892 ft | 183 kts | 178° |
| 2026-05-07 23:54 | 32.85259 | -97.05046 | 3356 ft | 200 kts | 179° |
| 2026-05-07 23:54 | 32.83806 | -97.05044 | 3783 ft | 217 kts | 179° |
| 2026-05-07 23:55 | 32.82230 | -97.05089 | 4216 ft | 236 kts | 181° |
| 2026-05-07 23:55 | 32.80547 | -97.05167 | 4771 ft | 249 kts | 181° |
| 2026-05-07 23:55 | 32.78772 | -97.05214 | 5412 ft | 259 kts | 181° |
| 2026-05-07 23:55 | 32.76952 | -97.05255 | 6181 ft | 263 kts | 184° |
| 2026-05-07 23:56 | 32.75120 | -97.05308 | 6989 ft | 264 kts | 184° |
| 2026-05-07 23:56 | 32.73287 | -97.05382 | 7711 ft | 261 kts | 190° |
| 2026-05-07 23:56 | 32.71581 | -97.06139 | 8278 ft | 260 kts | 220° |
| 2026-05-07 23:56 | 32.70424 | -97.07779 | 8902 ft | 264 kts | 243° |
| 2026-05-07 23:57 | 32.69844 | -97.09837 | 9488 ft | 265 kts | 257° |
| 2026-05-07 23:57 | 32.69420 | -97.11990 | 10170 ft | 269 kts | 257° |
| 2026-05-07 23:57 | 32.69027 | -97.14215 | 10506 ft | 285 kts | 262° |
| 2026-05-07 23:57 | 32.68889 | -97.16661 | 10727 ft | 308 kts | 268° |
| 2026-05-07 23:58 | 32.68859 | -97.19244 | 11317 ft | 317 kts | 269° |
| 2026-05-07 23:58 | 32.68845 | -97.21936 | 11788 ft | 331 kts | 269° |
| 2026-05-07 23:58 | 32.68824 | -97.24640 | 12904 ft | 326 kts | 269° |
| 2026-05-07 23:58 | 32.68794 | -97.27315 | 13941 ft | 324 kts | 269° |
| 2026-05-07 23:59 | 32.68754 | -97.30004 | 14717 ft | 328 kts | 269° |
| 2026-05-07 23:59 | 32.68708 | -97.32729 | 15469 ft | 332 kts | 268° |
| 2026-05-07 23:59 | 32.68656 | -97.35486 | 16254 ft | 335 kts | 268° |
| 2026-05-07 23:59 | 32.68599 | -97.38268 | 16978 ft | 342 kts | 267° |
| 2026-05-08 00:00 | 32.68539 | -97.41137 | 17525 ft | 353 kts | 267° |
| 2026-05-08 00:00 | 32.68475 | -97.44083 | 18267 ft | 360 kts | 267° |
| 2026-05-08 00:00 | 32.68410 | -97.47060 | 19070 ft | 362 kts | 267° |
| 2026-05-08 00:00 | 32.68344 | -97.50046 | 19998 ft | 361 kts | 267° |
| 2026-05-08 00:01 | 32.68278 | -97.53024 | 20854 ft | 362 kts | 267° |
| 2026-05-08 00:01 | 32.68210 | -97.56024 | 21675 ft | 365 kts | 268° |
| 2026-05-08 00:01 | 32.68141 | -97.59045 | 22521 ft | 368 kts | 268° |
| 2026-05-08 00:01 | 32.68070 | -97.62109 | 23285 ft | 373 kts | 268° |
| 2026-05-08 00:02 | 32.67999 | -97.65198 | 24005 ft | 376 kts | 268° |
| 2026-05-08 00:02 | 32.67926 | -97.68301 | 24739 ft | 376 kts | 267° |
| 2026-05-08 00:02 | 32.67852 | -97.71403 | 25514 ft | 376 kts | 266° |
| 2026-05-08 00:02 | 32.67759 | -97.74503 | 26230 ft | 377 kts | 265° |
| 2026-05-08 00:03 | 32.67558 | -97.77609 | 26882 ft | 378 kts | 263° |
| 2026-05-08 00:03 | 32.67303 | -97.80720 | 27532 ft | 379 kts | 262° |
| 2026-05-08 00:03 | 32.67037 | -97.83842 | 28167 ft | 381 kts | 262° |
| 2026-05-08 00:03 | 32.66773 | -97.86972 | 28785 ft | 382 kts | 262° |
| 2026-05-08 00:04 | 32.66514 | -97.90120 | 29389 ft | 384 kts | 262° |
| 2026-05-08 00:04 | 32.66259 | -97.93284 | 29948 ft | 386 kts | 262° |
| 2026-05-08 00:04 | 32.66007 | -97.96461 | 30406 ft | 388 kts | 262° |
| 2026-05-08 00:04 | 32.65754 | -97.99660 | 30785 ft | 390 kts | 261° |
| 2026-05-08 00:05 | 32.65639 | -98.01115 | 30938 ft | 392 kts | 261° |
| 2026-05-08 00:05 | 32.65430 | -98.03746 | 31185 ft | 395 kts | 261° |
| 2026-05-08 00:05 | 32.65172 | -98.06994 | 31504 ft | 397 kts | 261° |
| 2026-05-08 00:05 | 32.64920 | -98.10168 | 31824 ft | 399 kts | 261° |
| 2026-05-08 00:06 | 32.64658 | -98.13453 | 32134 ft | 401 kts | 261° |
| 2026-05-08 00:06 | 32.64394 | -98.16751 | 32442 ft | 402 kts | 260° |
| 2026-05-08 00:06 | 32.64129 | -98.20056 | 32802 ft | 402 kts | 260° |
| 2026-05-08 00:06 | 32.63863 | -98.23355 | 33191 ft | 401 kts | 260° |
| 2026-05-08 00:07 | 32.63596 | -98.26652 | 33557 ft | 402 kts | 260° |
| 2026-05-08 00:07 | 32.63329 | -98.29950 | 33908 ft | 402 kts | 259° |
| 2026-05-08 00:07 | 32.63060 | -98.33249 | 34299 ft | 401 kts | 259° |
| 2026-05-08 00:07 | 32.62794 | -98.36515 | 34832 ft | 395 kts | 259° |
| 2026-05-08 00:08 | 32.62532 | -98.39737 | 35394 ft | 390 kts | 259° |
| 2026-05-08 00:08 | 32.62271 | -98.42924 | 35832 ft | 387 kts | 260° |
| 2026-05-08 00:08 | 32.62010 | -98.46103 | 36224 ft | 386 kts | 260° |
| 2026-05-08 00:08 | 32.61749 | -98.49264 | 36623 ft | 385 kts | 260° |
| 2026-05-08 00:09 | 32.61487 | -98.52417 | 37059 ft | 382 kts | 260° |
| 2026-05-08 00:09 | 32.61227 | -98.55545 | 37486 ft | 380 kts | 260° |
| 2026-05-08 00:09 | 32.60968 | -98.58658 | 37885 ft | 378 kts | 260° |
| 2026-05-08 00:09 | 32.60706 | -98.61778 | 37975 ft | 382 kts | 260° |
| 2026-05-08 00:10 | 32.60178 | -98.68054 | 38026 ft | 381 kts | 260° |
| 2026-05-08 00:10 | 32.59656 | -98.74250 | 38032 ft | 376 kts | 260° |
| 2026-05-08 00:11 | 32.59132 | -98.80411 | 38033 ft | 375 kts | 260° |
| 2026-05-08 00:11 | 32.58605 | -98.86573 | 38034 ft | 376 kts | 260° |
| 2026-05-08 00:12 | 32.58097 | -98.92478 | 38037 ft | 377 kts | 260° |
| 2026-05-08 00:12 | 32.57572 | -98.98580 | 38019 ft | 360 kts | 260° |
| 2026-05-08 00:13 | 32.57325 | -99.01471 | 38013 ft | 346 kts | 260° |
| 2026-05-08 00:13 | 32.57081 | -99.04291 | 38026 ft | 342 kts | 259° |
| 2026-05-08 00:13 | 32.56596 | -99.09816 | 38022 ft | 334 kts | 259° |
| 2026-05-08 00:14 | 32.56111 | -99.15297 | 38030 ft | 335 kts | 259° |
| 2026-05-08 00:14 | 32.55625 | -99.20792 | 38025 ft | 336 kts | 259° |
| 2026-05-08 00:15 | 32.55137 | -99.26297 | 38023 ft | 336 kts | 259° |
| 2026-05-08 00:15 | 32.54645 | -99.31815 | 38019 ft | 337 kts | 259° |
| 2026-05-08 00:16 | 32.54233 | -99.37355 | 38021 ft | 338 kts | 261° |
| 2026-05-08 00:16 | 32.53921 | -99.42911 | 38036 ft | 338 kts | 261° |
| 2026-05-08 00:17 | 32.53605 | -99.48459 | 38036 ft | 338 kts | 260° |
| 2026-05-08 00:17 | 32.53275 | -99.54017 | 38047 ft | 338 kts | 260° |
| 2026-05-08 00:18 | 32.52938 | -99.59583 | 38049 ft | 339 kts | 260° |
| 2026-05-08 00:18 | 32.52597 | -99.65162 | 38049 ft | 340 kts | 260° |
| 2026-05-08 00:19 | 32.52253 | -99.70748 | 38052 ft | 340 kts | 260° |
| 2026-05-08 00:19 | 32.51905 | -99.76335 | 38046 ft | 340 kts | 260° |
| 2026-05-08 00:20 | 32.51556 | -99.81918 | 38028 ft | 340 kts | 260° |
| 2026-05-08 00:20 | 32.51204 | -99.87504 | 38035 ft | 340 kts | 260° |
| 2026-05-08 00:21 | 32.50849 | -99.93094 | 38031 ft | 340 kts | 259° |
| 2026-05-08 00:21 | 32.50494 | -99.98652 | 38014 ft | 341 kts | 259° |
| 2026-05-08 00:22 | 32.50133 | -100.04249 | 38006 ft | 341 kts | 259° |
| 2026-05-08 00:22 | 32.49770 | -100.09851 | 38004 ft | 341 kts | 259° |
| 2026-05-08 00:23 | 32.49410 | -100.15372 | 38003 ft | 341 kts | 259° |
| 2026-05-08 00:23 | 32.49043 | -100.20967 | 37997 ft | 341 kts | 259° |
| 2026-05-08 00:24 | 32.48672 | -100.26574 | 37978 ft | 342 kts | 259° |
| 2026-05-08 00:24 | 32.48269 | -100.32177 | 38059 ft | 340 kts | 256° |
| 2026-05-08 00:25 | 32.47313 | -100.37627 | 38076 ft | 338 kts | 252° |
| 2026-05-08 00:25 | 32.46186 | -100.43035 | 38073 ft | 338 kts | 252° |
| 2026-05-08 00:26 | 32.45087 | -100.48401 | 38042 ft | 339 kts | 252° |
| 2026-05-08 00:26 | 32.44000 | -100.53824 | 38067 ft | 339 kts | 252° |
| 2026-05-08 00:27 | 32.42923 | -100.59250 | 38073 ft | 339 kts | 252° |
| 2026-05-08 00:27 | 32.41847 | -100.64681 | 38038 ft | 339 kts | 252° |
| 2026-05-08 00:28 | 32.40769 | -100.70118 | 38035 ft | 340 kts | 252° |
| 2026-05-08 00:28 | 32.39687 | -100.75565 | 38014 ft | 340 kts | 252° |
| 2026-05-08 00:29 | 32.38657 | -100.80742 | 38000 ft | 340 kts | 252° |
| 2026-05-08 00:29 | 32.37569 | -100.86198 | 37984 ft | 341 kts | 252° |
| 2026-05-08 00:30 | 32.36663 | -100.90727 | 37982 ft | 340 kts | 252° |
| 2026-05-08 00:30 | 32.35573 | -100.96173 | 37965 ft | 340 kts | 252° |
| 2026-05-08 00:31 | 32.34480 | -101.01615 | 37969 ft | 340 kts | 252° |
| 2026-05-08 00:31 | 32.33387 | -101.07043 | 37973 ft | 339 kts | 252° |
| 2026-05-08 00:32 | 32.32291 | -101.12473 | 37963 ft | 339 kts | 252° |
| 2026-05-08 00:32 | 32.31193 | -101.17901 | 37972 ft | 339 kts | 252° |
| 2026-05-08 00:33 | 32.30093 | -101.23328 | 37972 ft | 340 kts | 252° |
| 2026-05-08 00:33 | 32.28991 | -101.28750 | 38013 ft | 339 kts | 252° |
| 2026-05-08 00:34 | 32.27886 | -101.34176 | 38025 ft | 340 kts | 252° |
| 2026-05-08 00:34 | 32.26775 | -101.39617 | 38038 ft | 341 kts | 252° |
| 2026-05-08 00:35 | 32.25659 | -101.45066 | 38032 ft | 342 kts | 252° |
| 2026-05-08 00:35 | 32.24539 | -101.50528 | 38032 ft | 342 kts | 252° |
| 2026-05-08 00:36 | 32.23417 | -101.55987 | 38046 ft | 342 kts | 252° |
| 2026-05-08 00:36 | 32.22292 | -101.61447 | 38044 ft | 342 kts | 252° |
| 2026-05-08 00:37 | 32.21164 | -101.66904 | 38022 ft | 342 kts | 252° |
| 2026-05-08 00:38 | 32.19471 | -101.75078 | 38003 ft | 342 kts | 252° |
| 2026-05-08 00:38 | 32.18340 | -101.80522 | 37999 ft | 341 kts | 251° |
| 2026-05-08 00:39 | 32.17214 | -101.85927 | 37990 ft | 341 kts | 251° |
| 2026-05-08 00:39 | 32.16078 | -101.91368 | 38010 ft | 341 kts | 251° |
| 2026-05-08 00:40 | 32.14940 | -101.96809 | 38024 ft | 342 kts | 251° |
| 2026-05-08 00:40 | 32.13799 | -102.02252 | 38038 ft | 342 kts | 251° |
| 2026-05-08 00:41 | 32.12656 | -102.07693 | 38056 ft | 342 kts | 251° |
| 2026-05-08 00:41 | 32.11508 | -102.13140 | 38049 ft | 342 kts | 251° |
| 2026-05-08 00:42 | 32.10358 | -102.18586 | 38043 ft | 342 kts | 251° |
| 2026-05-08 00:42 | 32.09207 | -102.24026 | 38018 ft | 342 kts | 251° |
| 2026-05-08 00:43 | 32.08053 | -102.29467 | 38014 ft | 342 kts | 251° |
| 2026-05-08 00:43 | 32.06899 | -102.34898 | 38027 ft | 342 kts | 251° |
| 2026-05-08 00:44 | 32.05742 | -102.40327 | 38033 ft | 341 kts | 251° |
| 2026-05-08 00:44 | 32.04581 | -102.45761 | 38034 ft | 342 kts | 251° |
| 2026-05-08 00:45 | 32.03417 | -102.51201 | 38026 ft | 343 kts | 251° |
| 2026-05-08 00:45 | 32.02249 | -102.56645 | 38016 ft | 343 kts | 251° |
| 2026-05-08 00:46 | 32.01080 | -102.62086 | 38003 ft | 343 kts | 251° |
| 2026-05-08 00:46 | 31.99907 | -102.67528 | 37989 ft | 343 kts | 251° |
| 2026-05-08 00:47 | 31.98732 | -102.72971 | 37980 ft | 343 kts | 251° |
| 2026-05-08 00:47 | 31.97554 | -102.78414 | 37979 ft | 343 kts | 250° |
| 2026-05-08 00:48 | 31.96373 | -102.83857 | 37924 ft | 343 kts | 251° |
| 2026-05-08 00:48 | 31.95189 | -102.89304 | 37947 ft | 344 kts | 251° |
| 2026-05-08 00:49 | 31.94002 | -102.94757 | 37943 ft | 344 kts | 251° |
| 2026-05-08 00:49 | 31.92809 | -103.00218 | 37944 ft | 345 kts | 251° |
| 2026-05-08 00:50 | 31.91614 | -103.05681 | 37946 ft | 345 kts | 251° |
| 2026-05-08 00:50 | 31.90416 | -103.11144 | 37939 ft | 345 kts | 251° |
| 2026-05-08 00:51 | 31.89217 | -103.16608 | 37947 ft | 345 kts | 250° |
| 2026-05-08 00:51 | 31.88024 | -103.22045 | 37938 ft | 346 kts | 251° |
| 2026-05-08 00:52 | 31.87279 | -103.27681 | 37941 ft | 352 kts | 258° |
| 2026-05-08 00:52 | 31.86927 | -103.33430 | 37943 ft | 353 kts | 259° |
| 2026-05-08 00:53 | 31.86587 | -103.39191 | 37934 ft | 353 kts | 259° |
| 2026-05-08 00:53 | 31.86240 | -103.44956 | 37933 ft | 353 kts | 259° |
| 2026-05-08 00:54 | 31.85887 | -103.50717 | 37933 ft | 354 kts | 258° |
| 2026-05-08 00:54 | 31.85525 | -103.56500 | 37933 ft | 356 kts | 258° |
| 2026-05-08 00:55 | 31.85159 | -103.62323 | 37931 ft | 358 kts | 258° |
| 2026-05-08 00:55 | 31.84789 | -103.68170 | 37929 ft | 359 kts | 258° |
| 2026-05-08 00:56 | 31.84415 | -103.74033 | 37929 ft | 360 kts | 259° |
| 2026-05-08 00:56 | 31.84039 | -103.79897 | 37931 ft | 359 kts | 258° |
| 2026-05-08 00:57 | 31.83661 | -103.85753 | 37923 ft | 359 kts | 259° |
| 2026-05-08 00:57 | 31.83279 | -103.91614 | 37926 ft | 360 kts | 259° |
| 2026-05-08 00:58 | 31.82892 | -103.97492 | 37935 ft | 361 kts | 259° |
| 2026-05-08 00:58 | 31.82501 | -104.03395 | 37934 ft | 363 kts | 259° |
| 2026-05-08 00:59 | 31.82106 | -104.09337 | 37937 ft | 365 kts | 259° |
| 2026-05-08 00:59 | 31.81705 | -104.15306 | 37933 ft | 367 kts | 259° |
| 2026-05-08 01:00 | 31.81301 | -104.21298 | 37935 ft | 368 kts | 259° |
| 2026-05-08 01:00 | 31.80895 | -104.27276 | 37968 ft | 369 kts | 259° |
| 2026-05-08 01:01 | 31.80483 | -104.33300 | 37956 ft | 371 kts | 259° |
| 2026-05-08 01:01 | 31.80065 | -104.39350 | 37941 ft | 372 kts | 259° |
| 2026-05-08 01:02 | 31.79645 | -104.45413 | 37941 ft | 372 kts | 259° |
| 2026-05-08 01:02 | 31.79224 | -104.51436 | 37936 ft | 372 kts | 259° |
| 2026-05-08 01:03 | 31.78798 | -104.57496 | 37940 ft | 372 kts | 259° |
| 2026-05-08 01:03 | 31.78370 | -104.63548 | 37939 ft | 371 kts | 259° |
| 2026-05-08 01:04 | 31.77938 | -104.69600 | 37927 ft | 371 kts | 259° |
| 2026-05-08 01:04 | 31.77504 | -104.75646 | 37926 ft | 371 kts | 258° |
| 2026-05-08 01:05 | 31.77066 | -104.81686 | 37928 ft | 371 kts | 259° |
| 2026-05-08 01:05 | 31.76627 | -104.87730 | 37924 ft | 371 kts | 259° |
| 2026-05-08 01:06 | 31.76184 | -104.93776 | 37963 ft | 371 kts | 259° |
| 2026-05-08 01:06 | 31.75739 | -104.99826 | 37916 ft | 371 kts | 259° |
| 2026-05-08 01:07 | 31.75470 | -105.05881 | 37916 ft | 373 kts | 265° |
| 2026-05-08 01:07 | 31.75795 | -105.11990 | 37898 ft | 374 kts | 266° |
| 2026-05-08 01:08 | 31.76137 | -105.18082 | 37896 ft | 374 kts | 266° |
| 2026-05-08 01:08 | 31.76469 | -105.24172 | 37890 ft | 374 kts | 266° |
| 2026-05-08 01:09 | 31.76794 | -105.30271 | 37920 ft | 375 kts | 266° |
| 2026-05-08 01:09 | 31.77116 | -105.36400 | 37894 ft | 376 kts | 266° |
| 2026-05-08 01:10 | 31.77437 | -105.42549 | 37885 ft | 377 kts | 266° |
| 2026-05-08 01:10 | 31.77756 | -105.48705 | 37885 ft | 377 kts | 266° |
| 2026-05-08 01:11 | 31.78072 | -105.54864 | 37882 ft | 378 kts | 266° |
| 2026-05-08 01:11 | 31.78385 | -105.61024 | 37885 ft | 377 kts | 266° |
| 2026-05-08 01:12 | 31.78694 | -105.67185 | 37878 ft | 378 kts | 266° |
| 2026-05-08 01:12 | 31.79002 | -105.73371 | 37884 ft | 380 kts | 266° |
| 2026-05-08 01:13 | 31.79307 | -105.79582 | 37869 ft | 381 kts | 266° |
| 2026-05-08 01:13 | 31.79611 | -105.85816 | 37865 ft | 383 kts | 266° |
| 2026-05-08 01:14 | 31.79914 | -105.92071 | 37864 ft | 383 kts | 266° |
| 2026-05-08 01:14 | 31.80214 | -105.98329 | 37867 ft | 383 kts | 266° |
| 2026-05-08 01:15 | 31.80460 | -106.03538 | 37891 ft | 384 kts | 266° |
| 2026-05-08 01:15 | 31.80754 | -106.09809 | 37920 ft | 384 kts | 266° |
| 2026-05-08 01:16 | 31.81046 | -106.16081 | 37929 ft | 384 kts | 266° |
| 2026-05-08 01:16 | 31.81335 | -106.22348 | 37952 ft | 384 kts | 266° |
| 2026-05-08 01:17 | 31.81620 | -106.28614 | 37978 ft | 384 kts | 267° |
| 2026-05-08 01:17 | 31.82051 | -106.34884 | 38008 ft | 385 kts | 268° |
| 2026-05-08 01:18 | 31.82556 | -106.41259 | 37997 ft | 398 kts | 269° |
| 2026-05-08 01:18 | 31.83068 | -106.47723 | 37953 ft | 395 kts | 270° |
| 2026-05-08 01:19 | 31.83621 | -106.54087 | 37951 ft | 391 kts | 268° |
| 2026-05-08 01:19 | 31.84045 | -106.60467 | 38009 ft | 392 kts | 268° |
| 2026-05-08 01:20 | 31.84488 | -106.66880 | 38017 ft | 394 kts | 269° |
| 2026-05-08 01:20 | 31.84949 | -106.73316 | 38020 ft | 396 kts | 269° |
| 2026-05-08 01:21 | 31.85416 | -106.79788 | 38013 ft | 398 kts | 269° |
| 2026-05-08 01:21 | 31.85883 | -106.86277 | 37976 ft | 398 kts | 269° |
| 2026-05-08 01:21 | 31.86115 | -106.89523 | 37822 ft | 398 kts | 269° |
| 2026-05-08 01:22 | 31.86346 | -106.92768 | 37814 ft | 398 kts | 269° |
| 2026-05-08 01:22 | 31.86805 | -106.99254 | 37812 ft | 398 kts | 268° |
| 2026-05-08 01:23 | 31.87260 | -107.05729 | 37841 ft | 397 kts | 269° |
| 2026-05-08 01:23 | 31.87711 | -107.12219 | 37826 ft | 398 kts | 269° |
| 2026-05-08 01:24 | 31.88161 | -107.18719 | 37823 ft | 399 kts | 269° |
| 2026-05-08 01:24 | 31.88608 | -107.25228 | 37820 ft | 399 kts | 269° |
| 2026-05-08 01:25 | 31.89052 | -107.31745 | 37820 ft | 400 kts | 269° |
| 2026-05-08 01:25 | 31.89494 | -107.38273 | 37817 ft | 400 kts | 269° |
| 2026-05-08 01:26 | 31.89931 | -107.44796 | 37823 ft | 400 kts | 269° |
| 2026-05-08 01:26 | 31.90366 | -107.51327 | 37822 ft | 401 kts | 269° |
| 2026-05-08 01:27 | 31.90798 | -107.57866 | 37817 ft | 401 kts | 269° |
| 2026-05-08 01:27 | 31.91226 | -107.64409 | 37836 ft | 402 kts | 269° |
| 2026-05-08 01:28 | 31.91655 | -107.70994 | 37853 ft | 405 kts | 269° |
| 2026-05-08 01:28 | 31.92187 | -107.77641 | 37852 ft | 412 kts | 274° |
| 2026-05-08 01:29 | 31.93576 | -107.84250 | 37828 ft | 419 kts | 280° |
| 2026-05-08 01:29 | 31.95194 | -107.90854 | 37834 ft | 420 kts | 280° |
| 2026-05-08 01:30 | 31.96799 | -107.97474 | 37831 ft | 420 kts | 280° |
| 2026-05-08 01:30 | 31.98388 | -108.04091 | 37831 ft | 419 kts | 280° |
| 2026-05-08 01:31 | 31.99954 | -108.10652 | 37836 ft | 418 kts | 280° |
| 2026-05-08 01:31 | 32.01523 | -108.17246 | 37824 ft | 418 kts | 280° |
| 2026-05-08 01:32 | 32.03085 | -108.23828 | 37834 ft | 417 kts | 280° |
| 2026-05-08 01:32 | 32.04641 | -108.30401 | 37833 ft | 416 kts | 279° |
| 2026-05-08 01:33 | 32.06192 | -108.36968 | 37836 ft | 416 kts | 279° |
| 2026-05-08 01:33 | 32.07739 | -108.43537 | 37856 ft | 416 kts | 280° |
| 2026-05-08 01:34 | 32.09288 | -108.50134 | 37880 ft | 419 kts | 280° |
| 2026-05-08 01:34 | 32.10845 | -108.56778 | 37912 ft | 421 kts | 280° |
| 2026-05-08 01:35 | 32.12406 | -108.63455 | 37930 ft | 423 kts | 280° |
| 2026-05-08 01:35 | 32.13969 | -108.70157 | 37942 ft | 424 kts | 280° |
| 2026-05-08 01:36 | 32.15528 | -108.76859 | 37825 ft | 424 kts | 280° |
| 2026-05-08 01:36 | 32.17086 | -108.83570 | 37831 ft | 424 kts | 281° |
| 2026-05-08 01:37 | 32.18640 | -108.90290 | 37826 ft | 425 kts | 281° |
| 2026-05-08 01:37 | 32.20193 | -108.97024 | 37828 ft | 425 kts | 281° |
| 2026-05-08 01:38 | 32.21768 | -109.03881 | 37855 ft | 442 kts | 281° |
| 2026-05-08 01:38 | 32.23387 | -109.10946 | 37836 ft | 458 kts | 281° |
| 2026-05-08 01:39 | 32.25073 | -109.18297 | 37827 ft | 467 kts | 282° |
| 2026-05-08 01:39 | 32.26786 | -109.25700 | 37837 ft | 467 kts | 284° |
| 2026-05-08 01:40 | 32.29120 | -109.32887 | 37844 ft | 469 kts | 290° |
| 2026-05-08 01:40 | 32.31655 | -109.39993 | 37838 ft | 469 kts | 290° |
| 2026-05-08 01:41 | 32.34180 | -109.47118 | 37840 ft | 470 kts | 290° |
| 2026-05-08 01:41 | 32.36682 | -109.54266 | 37836 ft | 471 kts | 290° |
| 2026-05-08 01:42 | 32.39174 | -109.61435 | 37841 ft | 472 kts | 290° |
| 2026-05-08 01:42 | 32.41671 | -109.68639 | 37853 ft | 474 kts | 290° |
| 2026-05-08 01:43 | 32.44174 | -109.75870 | 37845 ft | 475 kts | 290° |
| 2026-05-08 01:43 | 32.46679 | -109.83119 | 37862 ft | 476 kts | 291° |
| 2026-05-08 01:44 | 32.49183 | -109.90384 | 37858 ft | 476 kts | 291° |
| 2026-05-08 01:44 | 32.51679 | -109.97640 | 37859 ft | 476 kts | 291° |
| 2026-05-08 01:45 | 32.54169 | -110.04898 | 37865 ft | 475 kts | 291° |
| 2026-05-08 01:45 | 32.56653 | -110.12150 | 37854 ft | 475 kts | 291° |
| 2026-05-08 01:46 | 32.59134 | -110.19410 | 37853 ft | 475 kts | 292° |
| 2026-05-08 01:46 | 32.61612 | -110.26684 | 37861 ft | 476 kts | 292° |
| 2026-05-08 01:47 | 32.64087 | -110.33963 | 37854 ft | 476 kts | 292° |
| 2026-05-08 01:47 | 32.66557 | -110.41244 | 37845 ft | 476 kts | 292° |
| 2026-05-08 01:48 | 32.70250 | -110.52165 | 37843 ft | 475 kts | 293° |
| 2026-05-08 01:48 | 32.72706 | -110.59441 | 37844 ft | 474 kts | 292° |
| 2026-05-08 01:49 | 32.75161 | -110.66724 | 37845 ft | 476 kts | 293° |
| 2026-05-08 01:49 | 32.77424 | -110.73457 | 37842 ft | 478 kts | 293° |
| 2026-05-08 01:50 | 32.79886 | -110.80799 | 37837 ft | 479 kts | 293° |
| 2026-05-08 01:50 | 32.82339 | -110.88133 | 37835 ft | 476 kts | 293° |
| 2026-05-08 01:51 | 32.84774 | -110.95434 | 37828 ft | 474 kts | 293° |
| 2026-05-08 01:51 | 32.87194 | -111.02707 | 37830 ft | 473 kts | 293° |
| 2026-05-08 01:52 | 32.89642 | -111.10069 | 37833 ft | 484 kts | 293° |
| 2026-05-08 01:52 | 32.92135 | -111.17590 | 37825 ft | 490 kts | 294° |
| 2026-05-08 01:53 | 32.94629 | -111.25138 | 37803 ft | 490 kts | 294° |
| 2026-05-08 01:53 | 32.97115 | -111.32681 | 37815 ft | 489 kts | 294° |
| 2026-05-08 01:54 | 32.99596 | -111.40223 | 37818 ft | 489 kts | 294° |
| 2026-05-08 01:54 | 33.02075 | -111.47773 | 37810 ft | 489 kts | 294° |
| 2026-05-08 01:55 | 33.04549 | -111.55329 | 37808 ft | 489 kts | 293° |
| 2026-05-08 01:55 | 33.07018 | -111.62887 | 37831 ft | 490 kts | 293° |
| 2026-05-08 01:56 | 33.09490 | -111.70472 | 37847 ft | 491 kts | 293° |
| 2026-05-08 01:56 | 33.11544 | -111.76789 | 37855 ft | 492 kts | 293° |
| 2026-05-08 01:57 | 33.14008 | -111.84390 | 37860 ft | 489 kts | 294° |
| 2026-05-08 01:57 | 33.16451 | -111.91940 | 37853 ft | 486 kts | 294° |
| 2026-05-08 01:58 | 33.18875 | -111.99447 | 37846 ft | 484 kts | 294° |
| 2026-05-08 01:58 | 33.21286 | -112.06930 | 37841 ft | 483 kts | 294° |
| 2026-05-08 01:59 | 33.23695 | -112.14426 | 37811 ft | 483 kts | 294° |
| 2026-05-08 01:59 | 33.26101 | -112.21932 | 37847 ft | 484 kts | 294° |
| 2026-05-08 02:00 | 33.28509 | -112.29464 | 37854 ft | 486 kts | 294° |
| 2026-05-08 02:00 | 33.30917 | -112.37013 | 37847 ft | 486 kts | 294° |
| 2026-05-08 02:01 | 33.33321 | -112.44569 | 37859 ft | 486 kts | 294° |
| 2026-05-08 02:01 | 33.35728 | -112.52151 | 37853 ft | 489 kts | 294° |
| 2026-05-08 02:02 | 33.38140 | -112.59771 | 37878 ft | 490 kts | 294° |
| 2026-05-08 02:02 | 33.40553 | -112.67411 | 37865 ft | 491 kts | 294° |
| 2026-05-08 02:03 | 33.42964 | -112.75064 | 37874 ft | 491 kts | 294° |
| 2026-05-08 02:03 | 33.45370 | -112.82720 | 37863 ft | 491 kts | 293° |
| 2026-05-08 02:04 | 33.47974 | -112.90273 | 37854 ft | 491 kts | 296° |
| 2026-05-08 02:04 | 33.50733 | -112.97755 | 37841 ft | 491 kts | 296° |
| 2026-05-08 02:05 | 33.53466 | -113.05254 | 37838 ft | 491 kts | 297° |
| 2026-05-08 02:05 | 33.56157 | -113.12762 | 37822 ft | 489 kts | 297° |
| 2026-05-08 02:06 | 33.58825 | -113.20257 | 37827 ft | 488 kts | 297° |
| 2026-05-08 02:06 | 33.61484 | -113.27742 | 37839 ft | 487 kts | 297° |
| 2026-05-08 02:07 | 33.64137 | -113.35221 | 37838 ft | 487 kts | 297° |
| 2026-05-08 02:07 | 33.66787 | -113.42706 | 37844 ft | 487 kts | 297° |
| 2026-05-08 02:08 | 33.68107 | -113.46441 | 37968 ft | 485 kts | 296° |
| 2026-05-08 02:08 | 33.69420 | -113.50162 | 37970 ft | 484 kts | 296° |
| 2026-05-08 02:08 | 33.72037 | -113.57587 | 37982 ft | 482 kts | 296° |
| 2026-05-08 02:09 | 33.74642 | -113.65001 | 37952 ft | 481 kts | 296° |
| 2026-05-08 02:09 | 33.75942 | -113.68705 | 37841 ft | 481 kts | 296° |
| 2026-05-08 02:09 | 33.77240 | -113.72410 | 37835 ft | 481 kts | 296° |
| 2026-05-08 02:10 | 33.79834 | -113.79820 | 37834 ft | 481 kts | 296° |
| 2026-05-08 02:10 | 33.82380 | -113.87260 | 37843 ft | 481 kts | 295° |
| 2026-05-08 02:11 | 33.84889 | -113.94725 | 37836 ft | 482 kts | 296° |
| 2026-05-08 02:11 | 33.87402 | -114.02192 | 37837 ft | 481 kts | 296° |
| 2026-05-08 02:12 | 33.89918 | -114.09662 | 37821 ft | 482 kts | 296° |
| 2026-05-08 02:12 | 33.91837 | -114.17428 | 37837 ft | 488 kts | 285° |
| 2026-05-08 02:13 | 33.93061 | -114.25492 | 37827 ft | 491 kts | 284° |
| 2026-05-08 02:13 | 33.94292 | -114.33580 | 37820 ft | 491 kts | 285° |
| 2026-05-08 02:14 | 33.95621 | -114.41656 | 37805 ft | 491 kts | 285° |
| 2026-05-08 02:14 | 33.96982 | -114.49720 | 37813 ft | 492 kts | 285° |
| 2026-05-08 02:15 | 33.98343 | -114.57800 | 37818 ft | 493 kts | 285° |
| 2026-05-08 02:15 | 33.99695 | -114.65898 | 37820 ft | 493 kts | 285° |
| 2026-05-08 02:16 | 34.01038 | -114.74000 | 37820 ft | 493 kts | 285° |
| 2026-05-08 02:16 | 34.02378 | -114.82111 | 37829 ft | 493 kts | 285° |
| 2026-05-08 02:17 | 34.03712 | -114.90217 | 37824 ft | 493 kts | 285° |
| 2026-05-08 02:17 | 34.05041 | -114.98325 | 37824 ft | 493 kts | 285° |
| 2026-05-08 02:18 | 34.06360 | -115.06411 | 37830 ft | 489 kts | 284° |
| 2026-05-08 02:18 | 34.07662 | -115.14425 | 37819 ft | 486 kts | 284° |
| 2026-05-08 02:19 | 34.08969 | -115.22480 | 37829 ft | 493 kts | 284° |
| 2026-05-08 02:19 | 34.10288 | -115.30649 | 37844 ft | 499 kts | 284° |
| 2026-05-08 02:20 | 34.11599 | -115.38820 | 37832 ft | 499 kts | 283° |
| 2026-05-08 02:20 | 34.12911 | -115.47038 | 37842 ft | 498 kts | 283° |
| 2026-05-08 02:21 | 34.14213 | -115.55226 | 37853 ft | 496 kts | 283° |
| 2026-05-08 02:21 | 34.15506 | -115.63384 | 37841 ft | 494 kts | 283° |
| 2026-05-08 02:22 | 34.16397 | -115.71583 | 37848 ft | 497 kts | 269° |
| 2026-05-08 02:22 | 34.15492 | -115.79861 | 37885 ft | 498 kts | 263° |
| 2026-05-08 02:23 | 34.14525 | -115.88138 | 37916 ft | 498 kts | 265° |
| 2026-05-08 02:23 | 34.13718 | -115.96437 | 37916 ft | 498 kts | 265° |
| 2026-05-08 02:24 | 34.12925 | -116.04596 | 37933 ft | 479 kts | 265° |
| 2026-05-08 02:24 | 34.12140 | -116.12583 | 37962 ft | 479 kts | 265° |
| 2026-05-08 02:25 | 34.11352 | -116.20545 | 37954 ft | 477 kts | 265° |
| 2026-05-08 02:25 | 34.10562 | -116.28494 | 37876 ft | 477 kts | 265° |
| 2026-05-08 02:26 | 34.09738 | -116.36442 | 37885 ft | 478 kts | 265° |
| 2026-05-08 02:26 | 34.08875 | -116.44402 | 37886 ft | 479 kts | 265° |
| 2026-05-08 02:27 | 34.08014 | -116.52374 | 37899 ft | 480 kts | 265° |
| 2026-05-08 02:27 | 34.07149 | -116.60437 | 37891 ft | 489 kts | 265° |
| 2026-05-08 02:28 | 34.06393 | -116.68494 | 37903 ft | 479 kts | 266° |
| 2026-05-08 02:28 | 34.05675 | -116.76476 | 37940 ft | 480 kts | 265° |
| 2026-05-08 02:29 | 34.04929 | -116.84476 | 37970 ft | 481 kts | 266° |
| 2026-05-08 02:29 | 34.04112 | -116.92478 | 37975 ft | 481 kts | 263° |
| 2026-05-08 02:30 | 34.03020 | -117.00431 | 37988 ft | 480 kts | 263° |
| 2026-05-08 02:30 | 34.02011 | -117.08381 | 37990 ft | 479 kts | 264° |
| 2026-05-08 02:31 | 34.01157 | -117.16289 | 37725 ft | 468 kts | 269° |
| 2026-05-08 02:31 | 34.01183 | -117.20186 | 37064 ft | 464 kts | 277° |
| 2026-05-08 02:31 | 34.01715 | -117.24035 | 36027 ft | 468 kts | 286° |
| 2026-05-08 02:32 | 34.02764 | -117.27762 | 34999 ft | 472 kts | 296° |
| 2026-05-08 02:32 | 34.04309 | -117.31233 | 34215 ft | 460 kts | 305° |
| 2026-05-08 02:32 | 34.06187 | -117.34237 | 32958 ft | 441 kts | 314° |
| 2026-05-08 02:32 | 34.08376 | -117.36759 | 31441 ft | 430 kts | 324° |
| 2026-05-08 02:33 | 34.10830 | -117.38746 | 29898 ft | 422 kts | 334° |
| 2026-05-08 02:33 | 34.13485 | -117.40154 | 28184 ft | 412 kts | 343° |
| 2026-05-08 02:33 | 34.16235 | -117.40938 | 26632 ft | 401 kts | 354° |
| 2026-05-08 02:33 | 34.18985 | -117.41087 | 25198 ft | 391 kts | 4° |
| 2026-05-08 02:34 | 34.21639 | -117.40615 | 23838 ft | 382 kts | 15° |
| 2026-05-08 02:34 | 34.24113 | -117.39553 | 22300 ft | 374 kts | 26° |
| 2026-05-08 02:34 | 34.26320 | -117.37950 | 20820 ft | 367 kts | 37° |
| 2026-05-08 02:34 | 34.28156 | -117.35861 | 19762 ft | 355 kts | 49° |
| 2026-05-08 02:35 | 34.29522 | -117.33342 | 18865 ft | 368 kts | 63° |
| 2026-05-08 02:35 | 34.30380 | -117.30420 | 18529 ft | 370 kts | 75° |
| 2026-05-08 02:35 | 34.30694 | -117.27337 | 18346 ft | 369 kts | 88° |
| 2026-05-08 02:35 | 34.30310 | -117.24301 | 18032 ft | 370 kts | 109° |
| 2026-05-08 02:36 | 34.28909 | -117.21704 | 17594 ft | 372 kts | 135° |
| 2026-05-08 02:36 | 34.26725 | -117.20075 | 17193 ft | 371 kts | 160° |
| 2026-05-08 02:36 | 34.24175 | -117.19717 | 16802 ft | 372 kts | 186° |
| 2026-05-08 02:36 | 34.21731 | -117.20658 | 16492 ft | 370 kts | 206° |
| 2026-05-08 02:37 | 34.19469 | -117.22133 | 16245 ft | 370 kts | 208° |
| 2026-05-08 02:37 | 34.17172 | -117.23561 | 15959 ft | 371 kts | 205° |
| 2026-05-08 02:37 | 34.14785 | -117.24814 | 15117 ft | 381 kts | 200° |
| 2026-05-08 02:37 | 34.12223 | -117.25939 | 14437 ft | 399 kts | 198° |
| 2026-05-08 02:38 | 34.09568 | -117.26981 | 14230 ft | 402 kts | 196° |
| 2026-05-08 02:38 | 34.06930 | -117.27981 | 14047 ft | 390 kts | 196° |
| 2026-05-08 02:38 | 34.04404 | -117.28936 | 13990 ft | 371 kts | 196° |
| 2026-05-08 02:38 | 34.02793 | -117.29599 | 13976 ft | 352 kts | 202° |
| 2026-05-08 02:39 | 34.00268 | -117.31960 | 13978 ft | 356 kts | 232° |
| 2026-05-08 02:39 | 33.99354 | -117.33679 | 13755 ft | 365 kts | 243° |
| 2026-05-08 02:39 | 33.98575 | -117.36576 | 13409 ft | 363 kts | 262° |
| 2026-05-08 02:39 | 33.98272 | -117.39561 | 13081 ft | 356 kts | 264° |
| 2026-05-08 02:40 | 33.97973 | -117.42467 | 12761 ft | 352 kts | 264° |
| 2026-05-08 02:40 | 33.97642 | -117.45409 | 12441 ft | 348 kts | 263° |
| 2026-05-08 02:40 | 33.97328 | -117.48234 | 12132 ft | 337 kts | 266° |
| 2026-05-08 02:40 | 33.97486 | -117.51031 | 11844 ft | 328 kts | 284° |
| 2026-05-08 02:41 | 33.98027 | -117.53693 | 11569 ft | 326 kts | 285° |
| 2026-05-08 02:41 | 33.98539 | -117.56306 | 11289 ft | 323 kts | 284° |
| 2026-05-08 02:41 | 33.99024 | -117.58925 | 11013 ft | 320 kts | 284° |
| 2026-05-08 02:41 | 33.99494 | -117.61529 | 10732 ft | 317 kts | 283° |
| 2026-05-08 02:42 | 33.99946 | -117.64101 | 10450 ft | 310 kts | 283° |
| 2026-05-08 02:42 | 34.00385 | -117.66587 | 10166 ft | 294 kts | 283° |
| 2026-05-08 02:42 | 34.00683 | -117.68955 | 9866 ft | 280 kts | 272° |
| 2026-05-08 02:42 | 34.00525 | -117.71248 | 9529 ft | 272 kts | 265° |
| 2026-05-08 02:43 | 34.00264 | -117.73510 | 9212 ft | 275 kts | 264° |
| 2026-05-08 02:43 | 34.00002 | -117.75811 | 8877 ft | 278 kts | 264° |
| 2026-05-08 02:43 | 33.99751 | -117.78112 | 8537 ft | 276 kts | 264° |
| 2026-05-08 02:43 | 33.99514 | -117.80403 | 8204 ft | 275 kts | 265° |
| 2026-05-08 02:44 | 33.99286 | -117.82677 | 7881 ft | 272 kts | 265° |
| 2026-05-08 02:44 | 33.99063 | -117.84943 | 7598 ft | 269 kts | 265° |
| 2026-05-08 02:44 | 33.98848 | -117.87157 | 7303 ft | 266 kts | 265° |
| 2026-05-08 02:44 | 33.98633 | -117.89359 | 7026 ft | 263 kts | 265° |
| 2026-05-08 02:45 | 33.98420 | -117.91533 | 6779 ft | 259 kts | 265° |
| 2026-05-08 02:45 | 33.98209 | -117.93674 | 6541 ft | 256 kts | 265° |
| 2026-05-08 02:45 | 33.97999 | -117.95798 | 6300 ft | 255 kts | 264° |
| 2026-05-08 02:45 | 33.97791 | -117.97919 | 6052 ft | 254 kts | 265° |
| 2026-05-08 02:46 | 33.97582 | -118.00030 | 5807 ft | 253 kts | 265° |
| 2026-05-08 02:46 | 33.97375 | -118.02127 | 5570 ft | 252 kts | 265° |
| 2026-05-08 02:46 | 33.97168 | -118.04212 | 5342 ft | 250 kts | 264° |
| 2026-05-08 02:46 | 33.96961 | -118.06285 | 5114 ft | 248 kts | 264° |
| 2026-05-08 02:47 | 33.96755 | -118.08354 | 4806 ft | 249 kts | 265° |
| 2026-05-08 02:47 | 33.96549 | -118.10432 | 4485 ft | 250 kts | 265° |
| 2026-05-08 02:47 | 33.96341 | -118.12517 | 4157 ft | 251 kts | 265° |
| 2026-05-08 02:47 | 33.96139 | -118.14606 | 3831 ft | 250 kts | 265° |
| 2026-05-08 02:48 | 33.95951 | -118.16685 | 3514 ft | 249 kts | 265° |
| 2026-05-08 02:48 | 33.95746 | -118.18750 | 3228 ft | 248 kts | 264° |
| 2026-05-08 02:48 | 33.95541 | -118.20746 | 2910 ft | 237 kts | 264° |
| 2026-05-08 02:48 | 33.95339 | -118.22710 | 2619 ft | 236 kts | 263° |
| 2026-05-08 02:49 | 33.95136 | -118.24678 | 2309 ft | 237 kts | 263° |
| 2026-05-08 02:49 | 33.94934 | -118.26640 | 1992 ft | 236 kts | 263° |
| 2026-05-08 02:49 | 33.94736 | -118.28570 | 1687 ft | 225 kts | 262° |
| 2026-05-08 02:49 | 33.94554 | -118.30351 | 1443 ft | 203 kts | 262° |
| 2026-05-08 02:50 | 33.94388 | -118.31961 | 1150 ft | 185 kts | 262° |
| 2026-05-08 02:50 | 33.94237 | -118.33424 | 900 ft | 169 kts | 262° |
| 2026-05-08 02:50 | 33.94098 | -118.34761 | 697 ft | 152 kts | 263° |
| 2026-05-08 02:50 | 33.93982 | -118.35931 | 505 ft | 132 kts | 262° |
| 2026-05-08 02:51 | 33.93870 | -118.36986 | 363 ft | 123 kts | 260° |
| 2026-05-08 02:51 | 33.93761 | -118.38026 | 201 ft | 127 kts | 259° |
| 2026-05-08 02:51 | 33.93657 | -118.39061 | 98 ft | 114 kts | 262° |
| 2026-05-08 02:51 | 33.93575 | -118.39848 | 102 ft | 73 kts | 263° |
| 2026-05-08 02:52 | 33.93589 | -118.40253 | 100 ft | 33 kts | 290° |
| 2026-05-08 02:52 | 33.93626 | -118.40427 | 99 ft | 20 kts | 269° |
| 2026-05-08 02:52 | 33.93610 | -118.40592 | 102 ft | 20 kts | 262° |
| 2026-05-08 02:52 | 33.93593 | -118.40749 | 99 ft | 16 kts | 264° |
| 2026-05-08 02:53 | 33.93596 | -118.40819 | 101 ft | 2 kts | 282° |
| 2026-05-08 02:53 | 33.93597 | -118.40823 | 101 ft | 0 kts | 284° |
| 2026-05-08 02:53 | 33.93627 | -118.40879 | 101 ft | 15 kts | 323° |
| 2026-05-08 02:54 | 33.93724 | -118.40905 | 100 ft | 13 kts | 354° |
| 2026-05-08 02:54 | 33.93814 | -118.40917 | 99 ft | 13 kts | 353° |
| 2026-05-08 02:54 | 33.93861 | -118.40901 | 100 ft | 6 kts | 49° |
| 2026-05-08 02:54 | 33.93874 | -118.40854 | 97 ft | 6 kts | 80° |
| 2026-05-08 02:55 | 33.93889 | -118.40812 | 97 ft | 6 kts | 37° |
| 2026-05-08 02:55 | 33.93968 | -118.40818 | 99 ft | 6 kts | 353° |
| 2026-05-08 02:55 | 33.94008 | -118.40824 | 99 ft | 6 kts | 353° |
| 2026-05-08 02:56 | 33.94049 | -118.40828 | 98 ft | 6 kts | 359° |
| 2026-05-08 02:56 | 33.94086 | -118.40807 | 97 ft | 6 kts | 54° |
| 2026-05-08 02:56 | 33.94099 | -118.40763 | 99 ft | 5 kts | 70° |
| 2026-05-08 02:56 | 33.94105 | -118.40746 | 99 ft | 0 kts | 69° |